PWSweather.com
Personal Weather Stations
Station Observations
WD4JKH
Forsyth, GA 31029

Forsyth, GA 31029

Lat: 33.033225, Lon: -83.927995

Elevation: 709

Station Type: Davis Vantage VUE

High Low Average
Temperature 91.1°F32.8°C 73.3°F22.9°C 79.9°F26.6°C
Dew Point 78.1°F25.6°C 71.6°F22.0°C 73.8°F23.2°C
Winds 4.3 mph 6.9 kmh Calm Calm 2.0 mph SW3.2 kmh SW
Wind Gusts 10.0 mph16.1 kmh 1.0 mph1.6 kmh 5.0 mph8.0 kmh
Humidity 96% 56% 83%
Pressure 29.99 in1015.6 mb 29.88 in1011.9 mb -
Precipitation 0.19 in4.8 mm - -
Hour Temp Dew Point Humidity Winds Wind Gusts Pressure Precip Precip Rate Daily Precip Total
12:00 AM 77.0°F25.0°C 73.5°F23.1°C 89% 1.0 mph SW1.6 kmh SW 2.0 mph3.2 kmh 29.90 in1012.5 mb 0.00 in0.0 mm 0.00 in0.0 mm 0.00 in0.0 mm
12:05 AM 76.8°F24.9°C 73.3°F22.9°C 89% Calm Calm 2.0 mph3.2 kmh 29.90 in1012.5 mb 0.00 in0.0 mm 0.00 in0.0 mm 0.00 in0.0 mm
12:10 AM 76.6°F24.8°C 73.1°F22.8°C 89% Calm Calm 2.0 mph3.2 kmh 29.90 in1012.5 mb 0.00 in0.0 mm 0.00 in0.0 mm 0.00 in0.0 mm
12:15 AM 76.5°F24.7°C 73.3°F22.9°C 90% 1.4 mph SW2.3 kmh SW 2.0 mph3.2 kmh 29.90 in1012.5 mb 0.00 in0.0 mm 0.00 in0.0 mm 0.00 in0.0 mm
12:20 AM 76.5°F24.7°C 73.3°F22.9°C 90% 1.6 mph SW2.6 kmh SW 3.0 mph4.8 kmh 29.90 in1012.5 mb 0.00 in0.0 mm 0.00 in0.0 mm 0.00 in0.0 mm
12:25 AM 76.6°F24.8°C 73.4°F23.0°C 90% 1.3 mph WSW2.1 kmh WSW 3.0 mph4.8 kmh 29.90 in1012.5 mb 0.00 in0.0 mm 0.00 in0.0 mm 0.00 in0.0 mm
12:30 AM 76.6°F24.8°C 73.4°F23.0°C 90% 1.5 mph SW2.4 kmh SW 4.0 mph6.4 kmh 29.91 in1012.9 mb 0.00 in0.0 mm 0.00 in0.0 mm 0.00 in0.0 mm
12:35 AM 76.7°F24.8°C 73.5°F23.1°C 90% 1.0 mph SW1.6 kmh SW 4.0 mph6.4 kmh 29.91 in1012.9 mb 0.00 in0.0 mm 0.00 in0.0 mm 0.00 in0.0 mm
12:40 AM 76.6°F24.8°C 73.4°F23.0°C 90% 2.4 mph SW3.9 kmh SW 4.0 mph6.4 kmh 29.91 in1012.9 mb 0.00 in0.0 mm 0.00 in0.0 mm 0.00 in0.0 mm
12:45 AM 76.6°F24.8°C 73.4°F23.0°C 90% 1.0 mph SW1.6 kmh SW 4.0 mph6.4 kmh 29.91 in1012.9 mb 0.00 in0.0 mm 0.00 in0.0 mm 0.00 in0.0 mm
12:50 AM 76.6°F24.8°C 73.4°F23.0°C 90% 1.2 mph SW1.9 kmh SW 4.0 mph6.4 kmh 29.92 in1013.2 mb 0.00 in0.0 mm 0.00 in0.0 mm 0.00 in0.0 mm
12:55 AM 76.5°F24.7°C 73.3°F22.9°C 90% Calm Calm 4.0 mph6.4 kmh 29.92 in1013.2 mb 0.00 in0.0 mm 0.00 in0.0 mm 0.00 in0.0 mm
01:00 AM 76.4°F24.7°C 73.2°F22.9°C 90% Calm Calm 4.0 mph6.4 kmh 29.91 in1012.9 mb 0.00 in0.0 mm 0.00 in0.0 mm 0.00 in0.0 mm
01:05 AM 76.3°F24.6°C 73.1°F22.8°C 90% 1.3 mph SW2.1 kmh SW 4.0 mph6.4 kmh 29.91 in1012.9 mb 0.00 in0.0 mm 0.00 in0.0 mm 0.00 in0.0 mm
01:10 AM 76.2°F24.6°C 73.4°F23.0°C 91% 1.0 mph SW1.6 kmh SW 2.0 mph3.2 kmh 29.91 in1012.9 mb 0.00 in0.0 mm 0.00 in0.0 mm 0.00 in0.0 mm
01:15 AM 76.1°F24.5°C 73.3°F22.9°C 91% 1.4 mph SW2.3 kmh SW 2.0 mph3.2 kmh 29.91 in1012.9 mb 0.00 in0.0 mm 0.00 in0.0 mm 0.00 in0.0 mm
01:20 AM 76.1°F24.5°C 73.3°F22.9°C 91% 2.3 mph SW3.7 kmh SW 5.0 mph8.0 kmh 29.91 in1012.9 mb 0.00 in0.0 mm 0.00 in0.0 mm 0.00 in0.0 mm
01:25 AM 76.1°F24.5°C 73.3°F22.9°C 91% 1.1 mph WSW1.8 kmh WSW 5.0 mph8.0 kmh 29.92 in1013.2 mb 0.00 in0.0 mm 0.00 in0.0 mm 0.00 in0.0 mm
01:30 AM 76.0°F24.4°C 73.2°F22.9°C 91% Calm Calm 5.0 mph8.0 kmh 29.92 in1013.2 mb 0.00 in0.0 mm 0.00 in0.0 mm 0.00 in0.0 mm
01:35 AM 75.9°F24.4°C 73.1°F22.8°C 91% 1.3 mph SW2.1 kmh SW 5.0 mph8.0 kmh 29.91 in1012.9 mb 0.00 in0.0 mm 0.00 in0.0 mm 0.00 in0.0 mm
01:40 AM 75.9°F24.4°C 73.4°F23.0°C 92% 1.6 mph SW2.6 kmh SW 4.0 mph6.4 kmh 29.92 in1013.2 mb 0.00 in0.0 mm 0.00 in0.0 mm 0.00 in0.0 mm
01:45 AM 75.8°F24.3°C 73.3°F22.9°C 92% Calm Calm 4.0 mph6.4 kmh 29.92 in1013.2 mb 0.00 in0.0 mm 0.00 in0.0 mm 0.00 in0.0 mm
01:50 AM 75.8°F24.3°C 73.3°F22.9°C 92% Calm Calm 3.0 mph4.8 kmh 29.92 in1013.2 mb 0.00 in0.0 mm 0.00 in0.0 mm 0.00 in0.0 mm
01:55 AM 75.7°F24.3°C 73.2°F22.9°C 92% Calm Calm 2.0 mph3.2 kmh 29.92 in1013.2 mb 0.00 in0.0 mm 0.00 in0.0 mm 0.00 in0.0 mm
02:00 AM 75.6°F24.2°C 73.1°F22.8°C 92% Calm Calm 1.0 mph1.6 kmh 29.92 in1013.2 mb 0.00 in0.0 mm 0.00 in0.0 mm 0.00 in0.0 mm
02:05 AM 75.5°F24.2°C 73.0°F22.8°C 92% Calm Calm 1.0 mph1.6 kmh 29.92 in1013.2 mb 0.00 in0.0 mm 0.00 in0.0 mm 0.00 in0.0 mm
02:09 AM 75.4°F24.1°C 73.2°F22.9°C 93% Calm Calm 1.0 mph1.6 kmh 29.92 in1013.2 mb 0.00 in0.0 mm 0.00 in0.0 mm 0.00 in0.0 mm
02:15 AM 75.4°F24.1°C 73.2°F22.9°C 93% Calm Calm 1.0 mph1.6 kmh 29.93 in1013.5 mb 0.00 in0.0 mm 0.00 in0.0 mm 0.00 in0.0 mm
02:20 AM 75.3°F24.1°C 73.1°F22.8°C 93% Calm Calm 1.0 mph1.6 kmh 29.93 in1013.5 mb 0.00 in0.0 mm 0.00 in0.0 mm 0.00 in0.0 mm
02:25 AM 75.3°F24.1°C 73.1°F22.8°C 93% 1.0 mph WSW1.6 kmh WSW 1.0 mph1.6 kmh 29.92 in1013.2 mb 0.00 in0.0 mm 0.00 in0.0 mm 0.00 in0.0 mm
02:30 AM 75.2°F24.0°C 73.0°F22.8°C 93% Calm Calm 1.0 mph1.6 kmh 29.92 in1013.2 mb 0.00 in0.0 mm 0.00 in0.0 mm 0.00 in0.0 mm
02:35 AM 75.2°F24.0°C 73.0°F22.8°C 93% Calm Calm 1.0 mph1.6 kmh 29.92 in1013.2 mb 0.00 in0.0 mm 0.00 in0.0 mm 0.00 in0.0 mm
02:40 AM 75.1°F23.9°C 72.9°F22.7°C 93% 1.0 mph SW1.6 kmh SW 1.0 mph1.6 kmh 29.92 in1013.2 mb 0.00 in0.0 mm 0.00 in0.0 mm 0.00 in0.0 mm
02:45 AM 75.0°F23.9°C 72.8°F22.7°C 93% 1.0 mph SW1.6 kmh SW 1.0 mph1.6 kmh 29.91 in1012.9 mb 0.00 in0.0 mm 0.00 in0.0 mm 0.00 in0.0 mm
02:50 AM 75.0°F23.9°C 73.2°F22.9°C 94% 1.0 mph SW1.6 kmh SW 1.0 mph1.6 kmh 29.91 in1012.9 mb 0.00 in0.0 mm 0.00 in0.0 mm 0.00 in0.0 mm
02:55 AM 74.9°F23.8°C 73.0°F22.8°C 94% 1.0 mph WSW1.6 kmh WSW 1.0 mph1.6 kmh 29.91 in1012.9 mb 0.00 in0.0 mm 0.00 in0.0 mm 0.00 in0.0 mm
03:00 AM 74.8°F23.8°C 72.9°F22.7°C 94% 1.0 mph SW1.6 kmh SW 2.0 mph3.2 kmh 29.91 in1012.9 mb 0.00 in0.0 mm 0.00 in0.0 mm 0.00 in0.0 mm
03:05 AM 74.7°F23.7°C 72.8°F22.7°C 94% 1.6 mph SW2.6 kmh SW 2.0 mph3.2 kmh 29.91 in1012.9 mb 0.00 in0.0 mm 0.00 in0.0 mm 0.00 in0.0 mm
03:10 AM 74.6°F23.7°C 72.7°F22.6°C 94% 1.0 mph WSW1.6 kmh WSW 2.0 mph3.2 kmh 29.91 in1012.9 mb 0.00 in0.0 mm 0.00 in0.0 mm 0.00 in0.0 mm
03:15 AM 74.4°F23.6°C 72.5°F22.5°C 94% 1.0 mph SW1.6 kmh SW 2.0 mph3.2 kmh 29.91 in1012.9 mb 0.00 in0.0 mm 0.00 in0.0 mm 0.00 in0.0 mm
03:20 AM 74.4°F23.6°C 72.8°F22.7°C 95% 1.0 mph SW1.6 kmh SW 2.0 mph3.2 kmh 29.90 in1012.5 mb 0.00 in0.0 mm 0.00 in0.0 mm 0.00 in0.0 mm
03:25 AM 74.3°F23.5°C 72.7°F22.6°C 95% 1.6 mph SSW2.6 kmh SSW 2.0 mph3.2 kmh 29.90 in1012.5 mb 0.00 in0.0 mm 0.00 in0.0 mm 0.00 in0.0 mm
03:30 AM 74.2°F23.4°C 72.6°F22.6°C 95% Calm Calm 3.0 mph4.8 kmh 29.91 in1012.9 mb 0.00 in0.0 mm 0.00 in0.0 mm 0.00 in0.0 mm
03:35 AM 74.1°F23.4°C 72.5°F22.5°C 95% 1.2 mph SW1.9 kmh SW 3.0 mph4.8 kmh 29.90 in1012.5 mb 0.00 in0.0 mm 0.00 in0.0 mm 0.00 in0.0 mm
03:40 AM 74.1°F23.4°C 72.5°F22.5°C 95% 1.0 mph WSW1.6 kmh WSW 3.0 mph4.8 kmh 29.90 in1012.5 mb 0.00 in0.0 mm 0.00 in0.0 mm 0.00 in0.0 mm
03:45 AM 74.1°F23.4°C 72.5°F22.5°C 95% 1.3 mph SW2.1 kmh SW 4.0 mph6.4 kmh 29.90 in1012.5 mb 0.00 in0.0 mm 0.00 in0.0 mm 0.00 in0.0 mm
03:50 AM 74.0°F23.3°C 72.4°F22.4°C 95% 1.8 mph SW2.9 kmh SW 4.0 mph6.4 kmh 29.90 in1012.5 mb 0.00 in0.0 mm 0.00 in0.0 mm 0.00 in0.0 mm
03:55 AM 74.1°F23.4°C 72.5°F22.5°C 95% 2.4 mph SW3.9 kmh SW 6.0 mph9.7 kmh 29.90 in1012.5 mb 0.00 in0.0 mm 0.00 in0.0 mm 0.00 in0.0 mm
04:00 AM 74.2°F23.4°C 72.6°F22.6°C 95% 1.7 mph SW2.7 kmh SW 6.0 mph9.7 kmh 29.90 in1012.5 mb 0.00 in0.0 mm 0.00 in0.0 mm 0.00 in0.0 mm
04:05 AM 74.2°F23.4°C 72.3°F22.4°C 94% 1.4 mph SW2.3 kmh SW 6.0 mph9.7 kmh 29.90 in1012.5 mb 0.00 in0.0 mm 0.00 in0.0 mm 0.00 in0.0 mm
04:10 AM 74.2°F23.4°C 72.4°F22.4°C 94% Calm Calm 6.0 mph9.7 kmh 29.90 in1012.5 mb 0.00 in0.0 mm 0.00 in0.0 mm 0.00 in0.0 mm
04:15 AM 74.1°F23.4°C 72.3°F22.4°C 94% 1.5 mph SW2.4 kmh SW 4.0 mph6.4 kmh 29.89 in1012.2 mb 0.00 in0.0 mm 0.00 in0.0 mm 0.00 in0.0 mm
04:20 AM 74.0°F23.3°C 72.2°F22.3°C 94% 1.7 mph SW2.7 kmh SW 4.0 mph6.4 kmh 29.89 in1012.2 mb 0.00 in0.0 mm 0.00 in0.0 mm 0.00 in0.0 mm
04:25 AM 73.9°F23.3°C 72.0°F22.2°C 94% 1.6 mph SW2.6 kmh SW 5.0 mph8.0 kmh 29.88 in1011.9 mb 0.00 in0.0 mm 0.00 in0.0 mm 0.00 in0.0 mm
04:30 AM 73.9°F23.3°C 72.3°F22.4°C 95% 1.7 mph SW2.7 kmh SW 5.0 mph8.0 kmh 29.88 in1011.9 mb 0.00 in0.0 mm 0.00 in0.0 mm 0.00 in0.0 mm
04:35 AM 73.9°F23.3°C 72.3°F22.4°C 95% 2.1 mph SW3.4 kmh SW 6.0 mph9.7 kmh 29.88 in1011.9 mb 0.00 in0.0 mm 0.00 in0.0 mm 0.00 in0.0 mm
04:40 AM 73.9°F23.3°C 72.0°F22.2°C 94% 2.6 mph SW4.2 kmh SW 9.0 mph14.5 kmh 29.88 in1011.9 mb 0.00 in0.0 mm 0.00 in0.0 mm 0.00 in0.0 mm
04:45 AM 73.9°F23.3°C 72.0°F22.2°C 94% 1.1 mph SW1.8 kmh SW 9.0 mph14.5 kmh 29.88 in1011.9 mb 0.00 in0.0 mm 0.00 in0.0 mm 0.00 in0.0 mm
04:50 AM 73.8°F23.2°C 71.9°F22.2°C 94% 1.3 mph SW2.1 kmh SW 9.0 mph14.5 kmh 29.88 in1011.9 mb 0.00 in0.0 mm 0.00 in0.0 mm 0.00 in0.0 mm
04:55 AM 73.8°F23.2°C 72.2°F22.3°C 95% 1.7 mph SW2.7 kmh SW 9.0 mph14.5 kmh 29.88 in1011.9 mb 0.00 in0.0 mm 0.00 in0.0 mm 0.00 in0.0 mm
05:00 AM 73.8°F23.2°C 72.2°F22.3°C 95% 1.7 mph SW2.7 kmh SW 6.0 mph9.7 kmh 29.88 in1011.9 mb 0.00 in0.0 mm 0.00 in0.0 mm 0.00 in0.0 mm
05:05 AM 73.8°F23.2°C 72.2°F22.3°C 95% 2.1 mph SW3.4 kmh SW 6.0 mph9.7 kmh 29.88 in1011.9 mb 0.00 in0.0 mm 0.00 in0.0 mm 0.00 in0.0 mm
05:10 AM 73.9°F23.3°C 72.3°F22.4°C 95% 1.9 mph SW3.1 kmh SW 6.0 mph9.7 kmh 29.88 in1011.9 mb 0.00 in0.0 mm 0.00 in0.0 mm 0.00 in0.0 mm
05:15 AM 73.9°F23.3°C 72.0°F22.2°C 94% 1.7 mph SW2.7 kmh SW 6.0 mph9.7 kmh 29.88 in1011.9 mb 0.00 in0.0 mm 0.00 in0.0 mm 0.00 in0.0 mm
05:20 AM 73.9°F23.3°C 72.3°F22.4°C 95% 1.4 mph SW2.3 kmh SW 6.0 mph9.7 kmh 29.88 in1011.9 mb 0.00 in0.0 mm 0.00 in0.0 mm 0.00 in0.0 mm
05:25 AM 73.9°F23.3°C 72.4°F22.4°C 95% 1.6 mph SW2.6 kmh SW 6.0 mph9.7 kmh 29.88 in1011.9 mb 0.00 in0.0 mm 0.00 in0.0 mm 0.00 in0.0 mm
05:30 AM 73.8°F23.2°C 72.2°F22.3°C 95% 1.8 mph SW2.9 kmh SW 5.0 mph8.0 kmh 29.89 in1012.2 mb 0.00 in0.0 mm 0.00 in0.0 mm 0.00 in0.0 mm
05:35 AM 73.8°F23.2°C 72.2°F22.3°C 95% 1.3 mph SW2.1 kmh SW 5.0 mph8.0 kmh 29.89 in1012.2 mb 0.00 in0.0 mm 0.00 in0.0 mm 0.00 in0.0 mm
05:40 AM 73.8°F23.2°C 72.2°F22.3°C 95% 1.4 mph SW2.3 kmh SW 5.0 mph8.0 kmh 29.89 in1012.2 mb 0.00 in0.0 mm 0.00 in0.0 mm 0.00 in0.0 mm
05:45 AM 73.8°F23.2°C 72.2°F22.3°C 95% 3.2 mph SW5.1 kmh SW 6.0 mph9.7 kmh 29.90 in1012.5 mb 0.00 in0.0 mm 0.00 in0.0 mm 0.00 in0.0 mm
05:50 AM 73.8°F23.2°C 72.3°F22.4°C 95% 1.9 mph WSW3.1 kmh WSW 6.0 mph9.7 kmh 29.90 in1012.5 mb 0.00 in0.0 mm 0.00 in0.0 mm 0.00 in0.0 mm
05:55 AM 73.8°F23.2°C 72.3°F22.4°C 95% 1.6 mph SW2.6 kmh SW 6.0 mph9.7 kmh 29.91 in1012.9 mb 0.00 in0.0 mm 0.00 in0.0 mm 0.00 in0.0 mm
06:00 AM 73.8°F23.2°C 72.3°F22.4°C 95% 1.3 mph SW2.1 kmh SW 6.0 mph9.7 kmh 29.91 in1012.9 mb 0.00 in0.0 mm 0.00 in0.0 mm 0.00 in0.0 mm
06:05 AM 73.7°F23.2°C 72.1°F22.3°C 95% 1.5 mph SW2.4 kmh SW 6.0 mph9.7 kmh 29.91 in1012.9 mb 0.00 in0.0 mm 0.00 in0.0 mm 0.00 in0.0 mm
06:10 AM 73.7°F23.2°C 72.1°F22.3°C 95% 1.2 mph SW1.9 kmh SW 6.0 mph9.7 kmh 29.91 in1012.9 mb 0.00 in0.0 mm 0.00 in0.0 mm 0.00 in0.0 mm
06:15 AM 73.6°F23.1°C 72.0°F22.2°C 95% 1.0 mph SW1.6 kmh SW 6.0 mph9.7 kmh 29.91 in1012.9 mb 0.00 in0.0 mm 0.00 in0.0 mm 0.00 in0.0 mm
06:20 AM 73.6°F23.1°C 72.0°F22.2°C 95% 1.0 mph SW1.6 kmh SW 5.0 mph8.0 kmh 29.91 in1012.9 mb 0.00 in0.0 mm 0.00 in0.0 mm 0.00 in0.0 mm
06:25 AM 73.5°F23.1°C 71.9°F22.2°C 95% 1.0 mph WSW1.6 kmh WSW 2.0 mph3.2 kmh 29.92 in1013.2 mb 0.00 in0.0 mm 0.00 in0.0 mm 0.00 in0.0 mm
06:30 AM 73.5°F23.1°C 71.9°F22.2°C 95% 1.0 mph WSW1.6 kmh WSW 1.0 mph1.6 kmh 29.92 in1013.2 mb 0.00 in0.0 mm 0.00 in0.0 mm 0.00 in0.0 mm
06:35 AM 73.4°F23.0°C 71.9°F22.2°C 95% Calm Calm 1.0 mph1.6 kmh 29.92 in1013.2 mb 0.00 in0.0 mm 0.00 in0.0 mm 0.00 in0.0 mm
06:40 AM 73.3°F22.9°C 72.1°F22.3°C 96% 1.0 mph WSW1.6 kmh WSW 1.0 mph1.6 kmh 29.92 in1013.2 mb 0.00 in0.0 mm 0.00 in0.0 mm 0.00 in0.0 mm
06:45 AM 73.3°F22.9°C 72.1°F22.3°C 96% Calm Calm 1.0 mph1.6 kmh 29.92 in1013.2 mb 0.00 in0.0 mm 0.00 in0.0 mm 0.00 in0.0 mm
06:50 AM 73.3°F22.9°C 72.1°F22.3°C 96% Calm Calm 1.0 mph1.6 kmh 29.92 in1013.2 mb 0.00 in0.0 mm 0.00 in0.0 mm 0.00 in0.0 mm
06:55 AM 73.3°F22.9°C 72.1°F22.3°C 96% 1.0 mph WSW1.6 kmh WSW 1.0 mph1.6 kmh 29.92 in1013.2 mb 0.00 in0.0 mm 0.00 in0.0 mm 0.00 in0.0 mm
07:00 AM 73.4°F23.0°C 72.2°F22.3°C 96% 1.0 mph WSW1.6 kmh WSW 1.0 mph1.6 kmh 29.92 in1013.2 mb 0.00 in0.0 mm 0.00 in0.0 mm 0.00 in0.0 mm
07:05 AM 73.5°F23.1°C 72.3°F22.4°C 96% Calm Calm 1.0 mph1.6 kmh 29.92 in1013.2 mb 0.00 in0.0 mm 0.00 in0.0 mm 0.00 in0.0 mm
07:10 AM 73.6°F23.1°C 72.4°F22.4°C 96% 1.0 mph WSW1.6 kmh WSW 1.0 mph1.6 kmh 29.92 in1013.2 mb 0.00 in0.0 mm 0.00 in0.0 mm 0.00 in0.0 mm
07:15 AM 73.9°F23.3°C 72.7°F22.6°C 96% 1.1 mph WSW1.8 kmh WSW 2.0 mph3.2 kmh 29.92 in1013.2 mb 0.00 in0.0 mm 0.00 in0.0 mm 0.00 in0.0 mm
07:20 AM 74.2°F23.4°C 72.6°F22.6°C 95% 1.0 mph SW1.6 kmh SW 2.0 mph3.2 kmh 29.92 in1013.2 mb 0.00 in0.0 mm 0.00 in0.0 mm 0.00 in0.0 mm
07:25 AM 74.5°F23.6°C 72.9°F22.7°C 95% 1.0 mph SW1.6 kmh SW 2.0 mph3.2 kmh 29.92 in1013.2 mb 0.00 in0.0 mm 0.00 in0.0 mm 0.00 in0.0 mm
07:30 AM 74.8°F23.8°C 72.9°F22.7°C 94% 1.0 mph WSW1.6 kmh WSW 2.0 mph3.2 kmh 29.92 in1013.2 mb 0.00 in0.0 mm 0.00 in0.0 mm 0.00 in0.0 mm
07:35 AM 75.1°F23.9°C 73.2°F22.9°C 94% 1.0 mph SW1.6 kmh SW 2.0 mph3.2 kmh 29.92 in1013.2 mb 0.00 in0.0 mm 0.00 in0.0 mm 0.00 in0.0 mm
07:40 AM 75.4°F24.1°C 73.2°F22.9°C 93% 1.1 mph SW1.8 kmh SW 2.0 mph3.2 kmh 29.92 in1013.2 mb 0.00 in0.0 mm 0.00 in0.0 mm 0.00 in0.0 mm
07:44 AM 75.7°F24.3°C 73.5°F23.1°C 93% 1.4 mph SW2.3 kmh SW 4.0 mph6.4 kmh 29.92 in1013.2 mb 0.00 in0.0 mm 0.00 in0.0 mm 0.00 in0.0 mm
07:49 AM 75.9°F24.4°C 73.4°F23.0°C 92% 2.3 mph SSW3.7 kmh SSW 4.0 mph6.4 kmh 29.93 in1013.5 mb 0.00 in0.0 mm 0.00 in0.0 mm 0.00 in0.0 mm
07:54 AM 75.8°F24.3°C 73.3°F22.9°C 92% 2.2 mph SW3.5 kmh SW 4.0 mph6.4 kmh 29.93 in1013.5 mb 0.00 in0.0 mm 0.00 in0.0 mm 0.00 in0.0 mm
07:59 AM 75.7°F24.3°C 73.2°F22.9°C 92% 1.4 mph S2.3 kmh S 4.0 mph6.4 kmh 29.92 in1013.2 mb 0.00 in0.0 mm 0.00 in0.0 mm 0.00 in0.0 mm
08:04 AM 75.8°F24.3°C 73.3°F22.9°C 92% 1.5 mph SW2.4 kmh SW 5.0 mph8.0 kmh 29.93 in1013.5 mb 0.00 in0.0 mm 0.00 in0.0 mm 0.00 in0.0 mm
08:09 AM 76.1°F24.5°C 73.6°F23.1°C 92% 1.0 mph SW1.6 kmh SW 5.0 mph8.0 kmh 29.93 in1013.5 mb 0.00 in0.0 mm 0.00 in0.0 mm 0.00 in0.0 mm
08:14 AM 76.4°F24.7°C 73.9°F23.3°C 92% 1.8 mph SW2.9 kmh SW 5.0 mph8.0 kmh 29.93 in1013.5 mb 0.00 in0.0 mm 0.00 in0.0 mm 0.00 in0.0 mm
08:19 AM 76.6°F24.8°C 73.8°F23.2°C 91% 1.4 mph SW2.3 kmh SW 5.0 mph8.0 kmh 29.94 in1013.9 mb 0.00 in0.0 mm 0.00 in0.0 mm 0.00 in0.0 mm
08:24 AM 76.8°F24.9°C 74.0°F23.3°C 91% 1.3 mph WSW2.1 kmh WSW 5.0 mph8.0 kmh 29.94 in1013.9 mb 0.00 in0.0 mm 0.00 in0.0 mm 0.00 in0.0 mm
08:29 AM 77.0°F25.0°C 74.2°F23.4°C 91% 1.0 mph SSW1.6 kmh SSW 5.0 mph8.0 kmh 29.94 in1013.9 mb 0.00 in0.0 mm 0.00 in0.0 mm 0.00 in0.0 mm
08:34 AM 77.1°F25.1°C 73.9°F23.3°C 90% 2.2 mph SSW3.5 kmh SSW 5.0 mph8.0 kmh 29.94 in1013.9 mb 0.00 in0.0 mm 0.00 in0.0 mm 0.00 in0.0 mm
08:39 AM 76.9°F24.9°C 74.1°F23.4°C 91% 2.0 mph SW3.2 kmh SW 5.0 mph8.0 kmh 29.94 in1013.9 mb 0.00 in0.0 mm 0.00 in0.0 mm 0.00 in0.0 mm
08:44 AM 76.7°F24.8°C 73.9°F23.3°C 91% 2.1 mph SW3.4 kmh SW 6.0 mph9.7 kmh 29.94 in1013.9 mb 0.00 in0.0 mm 0.00 in0.0 mm 0.00 in0.0 mm
08:49 AM 76.7°F24.8°C 74.2°F23.4°C 92% 2.8 mph SSW4.5 kmh SSW 9.0 mph14.5 kmh 29.94 in1013.9 mb 0.00 in0.0 mm 0.00 in0.0 mm 0.00 in0.0 mm
08:54 AM 76.9°F24.9°C 74.1°F23.4°C 91% 3.7 mph SW6.0 kmh SW 9.0 mph14.5 kmh 29.94 in1013.9 mb 0.00 in0.0 mm 0.00 in0.0 mm 0.00 in0.0 mm
08:59 AM 76.9°F24.9°C 74.4°F23.6°C 92% 1.8 mph SW2.9 kmh SW 9.0 mph14.5 kmh 29.95 in1014.2 mb 0.00 in0.0 mm 0.00 in0.0 mm 0.00 in0.0 mm
09:04 AM 77.0°F25.0°C 74.2°F23.4°C 91% 2.1 mph SSW3.4 kmh SSW 9.0 mph14.5 kmh 29.95 in1014.2 mb 0.00 in0.0 mm 0.00 in0.0 mm 0.00 in0.0 mm
09:09 AM 77.1°F25.1°C 74.3°F23.5°C 91% 2.4 mph SSW3.9 kmh SSW 7.0 mph11.3 kmh 29.95 in1014.2 mb 0.00 in0.0 mm 0.00 in0.0 mm 0.00 in0.0 mm
09:14 AM 77.2°F25.1°C 74.4°F23.6°C 91% 2.0 mph SW3.2 kmh SW 5.0 mph8.0 kmh 29.95 in1014.2 mb 0.00 in0.0 mm 0.00 in0.0 mm 0.00 in0.0 mm
09:19 AM 77.2°F25.1°C 74.4°F23.6°C 91% 1.7 mph WSW2.7 kmh WSW 5.0 mph8.0 kmh 29.95 in1014.2 mb 0.00 in0.0 mm 0.00 in0.0 mm 0.00 in0.0 mm
09:24 AM 77.1°F25.1°C 74.3°F23.5°C 91% 3.4 mph SW5.5 kmh SW 6.0 mph9.7 kmh 29.95 in1014.2 mb 0.00 in0.0 mm 0.00 in0.0 mm 0.00 in0.0 mm
09:29 AM 77.2°F25.1°C 74.4°F23.6°C 91% 2.8 mph SW4.5 kmh SW 6.0 mph9.7 kmh 29.95 in1014.2 mb 0.00 in0.0 mm 0.00 in0.0 mm 0.00 in0.0 mm
09:34 AM 77.7°F25.4°C 74.9°F23.8°C 91% 2.4 mph SW3.9 kmh SW 6.0 mph9.7 kmh 29.95 in1014.2 mb 0.00 in0.0 mm 0.00 in0.0 mm 0.00 in0.0 mm
09:39 AM 77.9°F25.5°C 74.7°F23.7°C 90% 2.6 mph SW4.2 kmh SW 8.0 mph12.9 kmh 29.96 in1014.6 mb 0.00 in0.0 mm 0.00 in0.0 mm 0.00 in0.0 mm
09:44 AM 78.1°F25.6°C 74.9°F23.8°C 90% 1.0 mph S1.6 kmh S 8.0 mph12.9 kmh 29.96 in1014.6 mb 0.00 in0.0 mm 0.00 in0.0 mm 0.00 in0.0 mm
09:49 AM 78.2°F25.7°C 74.7°F23.7°C 89% 1.6 mph SW2.6 kmh SW 8.0 mph12.9 kmh 29.96 in1014.6 mb 0.00 in0.0 mm 0.00 in0.0 mm 0.00 in0.0 mm
09:54 AM 78.3°F25.7°C 75.1°F23.9°C 90% 1.0 mph S1.6 kmh S 8.0 mph12.9 kmh 29.96 in1014.6 mb 0.00 in0.0 mm 0.00 in0.0 mm 0.00 in0.0 mm
09:59 AM 78.5°F25.8°C 75.3°F24.1°C 90% 1.4 mph WSW2.3 kmh WSW 6.0 mph9.7 kmh 29.96 in1014.6 mb 0.00 in0.0 mm 0.00 in0.0 mm 0.00 in0.0 mm
10:04 AM 79.0°F26.1°C 75.5°F24.2°C 89% 1.0 mph E1.6 kmh E 6.0 mph9.7 kmh 29.96 in1014.6 mb 0.00 in0.0 mm 0.00 in0.0 mm 0.00 in0.0 mm
10:09 AM 79.2°F26.2°C 75.4°F24.1°C 88% 1.9 mph SW3.1 kmh SW 5.0 mph8.0 kmh 29.96 in1014.6 mb 0.00 in0.0 mm 0.00 in0.0 mm 0.00 in0.0 mm
10:14 AM 79.5°F26.4°C 75.3°F24.1°C 87% 1.5 mph WSW2.4 kmh WSW 4.0 mph6.4 kmh 29.96 in1014.6 mb 0.00 in0.0 mm 0.00 in0.0 mm 0.00 in0.0 mm
10:19 AM 79.9°F26.6°C 75.4°F24.1°C 86% 1.3 mph SE2.1 kmh SE 6.0 mph9.7 kmh 29.96 in1014.6 mb 0.00 in0.0 mm 0.00 in0.0 mm 0.00 in0.0 mm
10:24 AM 80.2°F26.8°C 75.7°F24.3°C 86% 1.2 mph SW1.9 kmh SW 6.0 mph9.7 kmh 29.97 in1014.9 mb 0.00 in0.0 mm 0.00 in0.0 mm 0.00 in0.0 mm
10:29 AM 79.9°F26.6°C 74.7°F23.7°C 84% 2.7 mph SW4.3 kmh SW 8.0 mph12.9 kmh 29.97 in1014.9 mb 0.00 in0.0 mm 0.00 in0.0 mm 0.00 in0.0 mm
10:34 AM 79.6°F26.4°C 74.7°F23.7°C 85% 3.2 mph SW5.1 kmh SW 8.0 mph12.9 kmh 29.97 in1014.9 mb 0.00 in0.0 mm 0.00 in0.0 mm 0.00 in0.0 mm
10:39 AM 79.9°F26.6°C 75.0°F23.9°C 85% 1.7 mph S2.7 kmh S 8.0 mph12.9 kmh 29.97 in1014.9 mb 0.00 in0.0 mm 0.00 in0.0 mm 0.00 in0.0 mm
10:44 AM 80.7°F27.1°C 74.8°F23.8°C 82% 2.9 mph SW4.7 kmh SW 8.0 mph12.9 kmh 29.97 in1014.9 mb 0.00 in0.0 mm 0.00 in0.0 mm 0.00 in0.0 mm
10:49 AM 81.7°F27.6°C 75.4°F24.1°C 81% 2.9 mph SW4.7 kmh SW 7.0 mph11.3 kmh 29.97 in1014.9 mb 0.00 in0.0 mm 0.00 in0.0 mm 0.00 in0.0 mm
10:54 AM 82.7°F28.2°C 75.7°F24.3°C 79% 2.8 mph SW4.5 kmh SW 6.0 mph9.7 kmh 29.97 in1014.9 mb 0.00 in0.0 mm 0.00 in0.0 mm 0.00 in0.0 mm
10:59 AM 83.0°F28.3°C 75.4°F24.1°C 78% 1.9 mph SSW3.1 kmh SSW 6.0 mph9.7 kmh 29.97 in1014.9 mb 0.00 in0.0 mm 0.00 in0.0 mm 0.00 in0.0 mm
11:04 AM 83.1°F28.4°C 75.3°F24.1°C 77% 1.0 mph WSW1.6 kmh WSW 6.0 mph9.7 kmh 29.97 in1014.9 mb 0.00 in0.0 mm 0.00 in0.0 mm 0.00 in0.0 mm
11:09 AM 83.3°F28.5°C 75.1°F23.9°C 76% 1.5 mph SW2.4 kmh SW 6.0 mph9.7 kmh 29.97 in1014.9 mb 0.00 in0.0 mm 0.00 in0.0 mm 0.00 in0.0 mm
11:14 AM 83.4°F28.6°C 75.2°F24.0°C 76% 1.7 mph SW2.7 kmh SW 6.0 mph9.7 kmh 29.97 in1014.9 mb 0.00 in0.0 mm 0.00 in0.0 mm 0.00 in0.0 mm
11:19 AM 83.5°F28.6°C 74.5°F23.6°C 74% 3.3 mph SSW5.3 kmh SSW 10.0 mph16.1 kmh 29.97 in1014.9 mb 0.00 in0.0 mm 0.00 in0.0 mm 0.00 in0.0 mm
11:24 AM 83.5°F28.6°C 74.7°F23.7°C 75% 2.0 mph SW3.2 kmh SW 10.0 mph16.1 kmh 29.97 in1014.9 mb 0.00 in0.0 mm 0.00 in0.0 mm 0.00 in0.0 mm
11:29 AM 84.5°F29.2°C 76.1°F24.5°C 76% 1.0 mph WSW1.6 kmh WSW 10.0 mph16.1 kmh 29.97 in1014.9 mb 0.00 in0.0 mm 0.00 in0.0 mm 0.00 in0.0 mm
11:34 AM 85.0°F29.4°C 74.8°F23.8°C 71% 4.3 mph WSW6.9 kmh WSW 10.0 mph16.1 kmh 29.97 in1014.9 mb 0.00 in0.0 mm 0.00 in0.0 mm 0.00 in0.0 mm
11:39 AM 84.9°F29.4°C 75.1°F23.9°C 72% 1.2 mph S1.9 kmh S 10.0 mph16.1 kmh 29.97 in1014.9 mb 0.00 in0.0 mm 0.00 in0.0 mm 0.00 in0.0 mm
11:44 AM 85.1°F29.5°C 75.3°F24.1°C 72% 1.4 mph S2.3 kmh S 10.0 mph16.1 kmh 29.97 in1014.9 mb 0.00 in0.0 mm 0.00 in0.0 mm 0.00 in0.0 mm
11:49 AM 85.2°F29.6°C 75.4°F24.1°C 72% 2.6 mph SW4.2 kmh SW 10.0 mph16.1 kmh 29.97 in1014.9 mb 0.00 in0.0 mm 0.00 in0.0 mm 0.00 in0.0 mm
11:54 AM 85.2°F29.6°C 75.0°F23.9°C 71% 2.8 mph SSW4.5 kmh SSW 9.0 mph14.5 kmh 29.97 in1014.9 mb 0.00 in0.0 mm 0.00 in0.0 mm 0.00 in0.0 mm
11:59 AM 85.4°F29.7°C 74.3°F23.5°C 69% 3.8 mph SW6.1 kmh SW 10.0 mph16.1 kmh 29.96 in1014.6 mb 0.00 in0.0 mm 0.00 in0.0 mm 0.00 in0.0 mm
12:04 PM 85.4°F29.7°C 74.3°F23.5°C 69% 3.3 mph SW5.3 kmh SW 10.0 mph16.1 kmh 29.96 in1014.6 mb 0.00 in0.0 mm 0.00 in0.0 mm 0.00 in0.0 mm
12:09 PM 85.5°F29.7°C 74.6°F23.7°C 70% 2.3 mph S3.7 kmh S 10.0 mph16.1 kmh 29.96 in1014.6 mb 0.00 in0.0 mm 0.00 in0.0 mm 0.00 in0.0 mm
12:14 PM 85.9°F29.9°C 74.8°F23.8°C 69% 1.7 mph SSW2.7 kmh SSW 10.0 mph16.1 kmh 29.96 in1014.6 mb 0.00 in0.0 mm 0.00 in0.0 mm 0.00 in0.0 mm
12:19 PM 86.4°F30.2°C 75.7°F24.3°C 70% 1.0 mph E1.6 kmh E 7.0 mph11.3 kmh 29.96 in1014.6 mb 0.00 in0.0 mm 0.00 in0.0 mm 0.00 in0.0 mm
12:24 PM 87.0°F30.6°C 75.0°F23.9°C 67% 1.4 mph SSE2.3 kmh SSE 5.0 mph8.0 kmh 29.96 in1014.6 mb 0.00 in0.0 mm 0.00 in0.0 mm 0.00 in0.0 mm
12:29 PM 87.1°F30.6°C 75.1°F23.9°C 67% 1.9 mph SSW3.1 kmh SSW 5.0 mph8.0 kmh 29.96 in1014.6 mb 0.00 in0.0 mm 0.00 in0.0 mm 0.00 in0.0 mm
12:34 PM 87.2°F30.7°C 75.6°F24.2°C 68% 1.3 mph SW2.1 kmh SW 5.0 mph8.0 kmh 29.96 in1014.6 mb 0.00 in0.0 mm 0.00 in0.0 mm 0.00 in0.0 mm
12:39 PM 87.2°F30.7°C 74.9°F23.8°C 67% 3.1 mph SW5.0 kmh SW 8.0 mph12.9 kmh 29.96 in1014.6 mb 0.00 in0.0 mm 0.00 in0.0 mm 0.00 in0.0 mm
12:44 PM 87.6°F30.9°C 75.6°F24.2°C 67% 3.1 mph S5.0 kmh S 8.0 mph12.9 kmh 29.96 in1014.6 mb 0.00 in0.0 mm 0.00 in0.0 mm 0.00 in0.0 mm
12:49 PM 87.9°F31.1°C 74.5°F23.6°C 64% 2.1 mph WSW3.4 kmh WSW 8.0 mph12.9 kmh 29.96 in1014.6 mb 0.00 in0.0 mm 0.00 in0.0 mm 0.00 in0.0 mm
12:54 PM 87.2°F30.7°C 73.8°F23.2°C 64% 2.8 mph SW4.5 kmh SW 8.0 mph12.9 kmh 29.96 in1014.6 mb 0.00 in0.0 mm 0.00 in0.0 mm 0.00 in0.0 mm
12:59 PM 87.6°F30.9°C 74.7°F23.7°C 65% 1.4 mph SE2.3 kmh SE 6.0 mph9.7 kmh 29.96 in1014.6 mb 0.00 in0.0 mm 0.00 in0.0 mm 0.00 in0.0 mm
01:04 PM 87.9°F31.1°C 74.0°F23.3°C 63% 2.1 mph WNW3.4 kmh WNW 6.0 mph9.7 kmh 29.96 in1014.6 mb 0.00 in0.0 mm 0.00 in0.0 mm 0.00 in0.0 mm
01:09 PM 87.8°F31.0°C 73.0°F22.8°C 61% 2.4 mph SW3.9 kmh SW 6.0 mph9.7 kmh 29.96 in1014.6 mb 0.00 in0.0 mm 0.00 in0.0 mm 0.00 in0.0 mm
01:14 PM 87.9°F31.1°C 74.0°F23.3°C 63% 3.5 mph SW5.6 kmh SW 7.0 mph11.3 kmh 29.96 in1014.6 mb 0.00 in0.0 mm 0.00 in0.0 mm 0.00 in0.0 mm
01:19 PM 88.3°F31.3°C 72.9°F22.7°C 60% 4.2 mph SW6.8 kmh SW 9.0 mph14.5 kmh 29.96 in1014.6 mb 0.00 in0.0 mm 0.00 in0.0 mm 0.00 in0.0 mm
01:24 PM 88.2°F31.2°C 73.3°F22.9°C 61% 1.6 mph SW2.6 kmh SW 9.0 mph14.5 kmh 29.95 in1014.2 mb 0.00 in0.0 mm 0.00 in0.0 mm 0.00 in0.0 mm
01:29 PM 88.3°F31.3°C 73.4°F23.0°C 61% 1.6 mph WSW2.6 kmh WSW 9.0 mph14.5 kmh 29.95 in1014.2 mb 0.00 in0.0 mm 0.00 in0.0 mm 0.00 in0.0 mm
01:34 PM 88.7°F31.5°C 74.3°F23.5°C 62% 1.6 mph WSW2.6 kmh WSW 9.0 mph14.5 kmh 29.95 in1014.2 mb 0.00 in0.0 mm 0.00 in0.0 mm 0.00 in0.0 mm
01:39 PM 88.7°F31.5°C 74.0°F23.3°C 62% 2.3 mph SW3.7 kmh SW 8.0 mph12.9 kmh 29.94 in1013.9 mb 0.00 in0.0 mm 0.00 in0.0 mm 0.00 in0.0 mm
01:43 PM 88.3°F31.3°C 73.4°F23.0°C 61% 3.0 mph SW4.8 kmh SW 8.0 mph12.9 kmh 29.94 in1013.9 mb 0.00 in0.0 mm 0.00 in0.0 mm 0.00 in0.0 mm
01:48 PM 88.6°F31.4°C 73.2°F22.9°C 60% 1.8 mph SW2.9 kmh SW 7.0 mph11.3 kmh 29.94 in1013.9 mb 0.00 in0.0 mm 0.00 in0.0 mm 0.00 in0.0 mm
01:53 PM 89.2°F31.8°C 74.0°F23.3°C 61% 2.8 mph WNW4.5 kmh WNW 7.0 mph11.3 kmh 29.93 in1013.5 mb 0.00 in0.0 mm 0.00 in0.0 mm 0.00 in0.0 mm
01:58 PM 88.8°F31.6°C 72.6°F22.6°C 59% Calm Calm 7.0 mph11.3 kmh 29.93 in1013.5 mb 0.00 in0.0 mm 0.00 in0.0 mm 0.00 in0.0 mm
02:03 PM 88.6°F31.4°C 74.2°F23.4°C 62% 2.5 mph NW4.0 kmh NW 7.0 mph11.3 kmh 29.92 in1013.2 mb 0.00 in0.0 mm 0.00 in0.0 mm 0.00 in0.0 mm
02:08 PM 88.6°F31.4°C 73.2°F22.9°C 60% 3.1 mph WNW5.0 kmh WNW 8.0 mph12.9 kmh 29.92 in1013.2 mb 0.00 in0.0 mm 0.00 in0.0 mm 0.00 in0.0 mm
02:13 PM 87.9°F31.1°C 73.1°F22.8°C 61% 2.8 mph W4.5 kmh W 8.0 mph12.9 kmh 29.92 in1013.2 mb 0.00 in0.0 mm 0.00 in0.0 mm 0.00 in0.0 mm
02:18 PM 87.7°F30.9°C 73.8°F23.2°C 63% 1.7 mph SW2.7 kmh SW 8.0 mph12.9 kmh 29.92 in1013.2 mb 0.00 in0.0 mm 0.00 in0.0 mm 0.00 in0.0 mm
02:23 PM 88.8°F31.6°C 74.6°F23.7°C 63% 1.0 mph S1.6 kmh S 8.0 mph12.9 kmh 29.92 in1013.2 mb 0.00 in0.0 mm 0.00 in0.0 mm 0.00 in0.0 mm
02:28 PM 89.5°F31.9°C 74.6°F23.7°C 61% 1.6 mph ESE2.6 kmh ESE 6.0 mph9.7 kmh 29.92 in1013.2 mb 0.00 in0.0 mm 0.00 in0.0 mm 0.00 in0.0 mm
02:33 PM 90.0°F32.2°C 75.0°F23.9°C 61% Calm Calm 6.0 mph9.7 kmh 29.92 in1013.2 mb 0.00 in0.0 mm 0.00 in0.0 mm 0.00 in0.0 mm
02:38 PM 91.1°F32.8°C 75.1°F23.9°C 59% 2.2 mph SE3.5 kmh SE 4.0 mph6.4 kmh 29.92 in1013.2 mb 0.00 in0.0 mm 0.00 in0.0 mm 0.00 in0.0 mm
02:43 PM 90.6°F32.6°C 73.8°F23.2°C 58% 1.7 mph SSW2.7 kmh SSW 5.0 mph8.0 kmh 29.92 in1013.2 mb 0.00 in0.0 mm 0.00 in0.0 mm 0.00 in0.0 mm
02:48 PM 90.0°F32.2°C 73.7°F23.2°C 59% 1.0 mph NE1.6 kmh NE 5.0 mph8.0 kmh 29.92 in1013.2 mb 0.00 in0.0 mm 0.00 in0.0 mm 0.00 in0.0 mm
02:53 PM 89.4°F31.9°C 73.0°F22.8°C 58% 2.6 mph WSW4.2 kmh WSW 5.0 mph8.0 kmh 29.92 in1013.2 mb 0.00 in0.0 mm 0.00 in0.0 mm 0.00 in0.0 mm
02:58 PM 88.6°F31.4°C 73.7°F23.2°C 61% 2.7 mph WSW4.3 kmh WSW 7.0 mph11.3 kmh 29.92 in1013.2 mb 0.00 in0.0 mm 0.00 in0.0 mm 0.00 in0.0 mm
03:03 PM 88.6°F31.4°C 74.2°F23.4°C 62% 1.6 mph WSW2.6 kmh WSW 7.0 mph11.3 kmh 29.92 in1013.2 mb 0.00 in0.0 mm 0.00 in0.0 mm 0.00 in0.0 mm
03:08 PM 88.3°F31.3°C 73.4°F23.0°C 61% 1.1 mph WSW1.8 kmh WSW 7.0 mph11.3 kmh 29.92 in1013.2 mb 0.00 in0.0 mm 0.00 in0.0 mm 0.00 in0.0 mm
03:13 PM 88.2°F31.2°C 72.8°F22.7°C 60% 1.4 mph W2.3 kmh W 7.0 mph11.3 kmh 29.92 in1013.2 mb 0.00 in0.0 mm 0.00 in0.0 mm 0.00 in0.0 mm
03:18 PM 88.7°F31.5°C 73.8°F23.2°C 61% 1.0 mph NW1.6 kmh NW 4.0 mph6.4 kmh 29.92 in1013.2 mb 0.00 in0.0 mm 0.00 in0.0 mm 0.00 in0.0 mm
03:23 PM 89.0°F31.7°C 73.3°F22.9°C 60% 1.3 mph SW2.1 kmh SW 3.0 mph4.8 kmh 29.92 in1013.2 mb 0.00 in0.0 mm 0.00 in0.0 mm 0.00 in0.0 mm
03:28 PM 88.9°F31.6°C 74.5°F23.6°C 62% Calm Calm 3.0 mph4.8 kmh 29.92 in1013.2 mb 0.00 in0.0 mm 0.00 in0.0 mm 0.00 in0.0 mm
03:33 PM 88.6°F31.4°C 74.7°F23.7°C 63% 1.0 mph WSW1.6 kmh WSW 2.0 mph3.2 kmh 29.92 in1013.2 mb 0.00 in0.0 mm 0.00 in0.0 mm 0.00 in0.0 mm
03:38 PM 88.4°F31.3°C 73.5°F23.1°C 61% 1.4 mph WNW2.3 kmh WNW 2.0 mph3.2 kmh 29.91 in1012.9 mb 0.00 in0.0 mm 0.00 in0.0 mm 0.00 in0.0 mm
03:43 PM 88.6°F31.4°C 73.9°F23.3°C 62% 1.0 mph N1.6 kmh N 2.0 mph3.2 kmh 29.91 in1012.9 mb 0.00 in0.0 mm 0.00 in0.0 mm 0.00 in0.0 mm
03:48 PM 89.2°F31.8°C 73.8°F23.2°C 60% 2.7 mph SW4.3 kmh SW 6.0 mph9.7 kmh 29.91 in1012.9 mb 0.00 in0.0 mm 0.00 in0.0 mm 0.00 in0.0 mm
03:53 PM 89.7°F32.1°C 73.8°F23.2°C 59% Calm Calm 6.0 mph9.7 kmh 29.91 in1012.9 mb 0.00 in0.0 mm 0.00 in0.0 mm 0.00 in0.0 mm
03:58 PM 90.6°F32.6°C 74.6°F23.7°C 59% 1.0 mph SW1.6 kmh SW 6.0 mph9.7 kmh 29.91 in1012.9 mb 0.00 in0.0 mm 0.00 in0.0 mm 0.00 in0.0 mm
04:03 PM 91.0°F32.8°C 74.5°F23.6°C 58% 1.5 mph SSW2.4 kmh SSW 6.0 mph9.7 kmh 29.91 in1012.9 mb 0.00 in0.0 mm 0.00 in0.0 mm 0.00 in0.0 mm
04:08 PM 90.9°F32.7°C 73.8°F23.2°C 57% 1.0 mph E1.6 kmh E 4.0 mph6.4 kmh 29.90 in1012.5 mb 0.00 in0.0 mm 0.00 in0.0 mm 0.00 in0.0 mm
04:13 PM 90.7°F32.6°C 73.7°F23.2°C 57% Calm Calm 4.0 mph6.4 kmh 29.90 in1012.5 mb 0.00 in0.0 mm 0.00 in0.0 mm 0.00 in0.0 mm
04:18 PM 90.8°F32.7°C 74.8°F23.8°C 59% 1.0 mph WSW1.6 kmh WSW 4.0 mph6.4 kmh 29.90 in1012.5 mb 0.00 in0.0 mm 0.00 in0.0 mm 0.00 in0.0 mm
04:23 PM 90.3°F32.4°C 72.7°F22.6°C 56% 1.4 mph WSW2.3 kmh WSW 3.0 mph4.8 kmh 29.90 in1012.5 mb 0.00 in0.0 mm 0.00 in0.0 mm 0.00 in0.0 mm
04:28 PM 90.4°F32.4°C 74.4°F23.6°C 59% 2.1 mph WSW3.4 kmh WSW 3.0 mph4.8 kmh 29.89 in1012.2 mb 0.00 in0.0 mm 0.00 in0.0 mm 0.00 in0.0 mm
04:33 PM 90.0°F32.2°C 75.5°F24.2°C 62% 1.0 mph S1.6 kmh S 3.0 mph4.8 kmh 29.89 in1012.2 mb 0.00 in0.0 mm 0.00 in0.0 mm 0.00 in0.0 mm
04:38 PM 89.8°F32.1°C 75.3°F24.1°C 62% 1.0 mph SW1.6 kmh SW 3.0 mph4.8 kmh 29.89 in1012.2 mb 0.00 in0.0 mm 0.00 in0.0 mm 0.00 in0.0 mm
04:43 PM 89.3°F31.8°C 74.9°F23.8°C 62% Calm Calm 3.0 mph4.8 kmh 29.89 in1012.2 mb 0.00 in0.0 mm 0.00 in0.0 mm 0.00 in0.0 mm
04:48 PM 89.2°F31.8°C 73.5°F23.1°C 60% 1.6 mph SE2.6 kmh SE 3.0 mph4.8 kmh 29.89 in1012.2 mb 0.00 in0.0 mm 0.00 in0.0 mm 0.00 in0.0 mm
04:53 PM 89.1°F31.7°C 74.2°F23.4°C 61% 1.0 mph SE1.6 kmh SE 3.0 mph4.8 kmh 29.89 in1012.2 mb 0.00 in0.0 mm 0.00 in0.0 mm 0.00 in0.0 mm
04:58 PM 89.2°F31.8°C 74.8°F23.8°C 62% Calm Calm 3.0 mph4.8 kmh 29.89 in1012.2 mb 0.00 in0.0 mm 0.00 in0.0 mm 0.00 in0.0 mm
05:03 PM 89.2°F31.8°C 74.8°F23.8°C 62% Calm Calm 3.0 mph4.8 kmh 29.89 in1012.2 mb 0.00 in0.0 mm 0.00 in0.0 mm 0.00 in0.0 mm
05:08 PM 89.2°F31.8°C 75.7°F24.3°C 64% Calm Calm 2.0 mph3.2 kmh 29.89 in1012.2 mb 0.00 in0.0 mm 0.00 in0.0 mm 0.00 in0.0 mm
05:13 PM 89.3°F31.8°C 75.4°F24.1°C 63% Calm Calm 1.0 mph1.6 kmh 29.89 in1012.2 mb 0.00 in0.0 mm 0.00 in0.0 mm 0.00 in0.0 mm
05:18 PM 88.3°F31.3°C 77.1°F25.1°C 69% 3.4 mph SW5.5 kmh SW 8.0 mph12.9 kmh 29.89 in1012.2 mb 0.02 in0.5 mm 0.24 in6.1 mm 0.02 in0.5 mm
05:23 PM 85.0°F29.4°C 77.0°F25.0°C 77% 2.4 mph SW3.9 kmh SW 8.0 mph12.9 kmh 29.90 in1012.5 mb 0.10 in2.5 mm 0.96 in24.4 mm 0.10 in2.5 mm
05:28 PM 82.8°F28.2°C 76.1°F24.5°C 80% 1.0 mph SW1.6 kmh SW 8.0 mph12.9 kmh 29.90 in1012.5 mb 0.17 in4.3 mm 0.84 in21.3 mm 0.18 in4.6 mm
05:33 PM 82.1°F27.8°C 75.1°F23.9°C 79% 1.5 mph S2.4 kmh S 8.0 mph12.9 kmh 29.90 in1012.5 mb 0.19 in4.8 mm 0.24 in6.1 mm 0.19 in4.8 mm
05:38 PM 82.7°F28.2°C 77.4°F25.2°C 84% 2.0 mph SW3.2 kmh SW 8.0 mph12.9 kmh 29.90 in1012.5 mb 0.19 in4.8 mm 0.00 in0.0 mm 0.19 in4.8 mm
05:43 PM 82.8°F28.2°C 76.4°F24.7°C 81% Calm Calm 4.0 mph6.4 kmh 29.90 in1012.5 mb 0.19 in4.8 mm 0.00 in0.0 mm 0.19 in4.8 mm
05:48 PM 83.1°F28.4°C 76.7°F24.8°C 81% 1.0 mph SW1.6 kmh SW 4.0 mph6.4 kmh 29.90 in1012.5 mb 0.19 in4.8 mm 0.00 in0.0 mm 0.19 in4.8 mm
05:53 PM 83.4°F28.6°C 77.4°F25.2°C 82% 1.4 mph SW2.3 kmh SW 4.0 mph6.4 kmh 29.90 in1012.5 mb 0.19 in4.8 mm 0.00 in0.0 mm 0.19 in4.8 mm
05:58 PM 83.6°F28.7°C 77.3°F25.2°C 81% 1.0 mph SW1.6 kmh SW 4.0 mph6.4 kmh 29.90 in1012.5 mb 0.19 in4.8 mm 0.00 in0.0 mm 0.19 in4.8 mm
06:03 PM 84.1°F28.9°C 78.1°F25.6°C 82% 1.6 mph SW2.6 kmh SW 4.0 mph6.4 kmh 29.90 in1012.5 mb 0.19 in4.8 mm 0.00 in0.0 mm 0.19 in4.8 mm
06:08 PM 84.4°F29.1°C 77.7°F25.4°C 80% 1.0 mph SW1.6 kmh SW 4.0 mph6.4 kmh 29.90 in1012.5 mb 0.19 in4.8 mm 0.00 in0.0 mm 0.19 in4.8 mm
06:13 PM 84.5°F29.2°C 77.6°F25.3°C 80% 1.7 mph S2.7 kmh S 4.0 mph6.4 kmh 29.90 in1012.5 mb 0.19 in4.8 mm 0.00 in0.0 mm 0.19 in4.8 mm
06:18 PM 84.2°F29.0°C 77.1°F25.1°C 79% 2.0 mph SW3.2 kmh SW 5.0 mph8.0 kmh 29.90 in1012.5 mb 0.17 in4.3 mm 0.00 in0.0 mm 0.19 in4.8 mm
06:23 PM 84.0°F28.9°C 77.3°F25.2°C 80% 2.9 mph SW4.7 kmh SW 6.0 mph9.7 kmh 29.90 in1012.5 mb 0.09 in2.3 mm 0.00 in0.0 mm 0.19 in4.8 mm
06:28 PM 84.0°F28.9°C 77.7°F25.4°C 81% 1.7 mph SW2.7 kmh SW 6.0 mph9.7 kmh 29.90 in1012.5 mb 0.01 in0.3 mm 0.00 in0.0 mm 0.19 in4.8 mm
06:33 PM 84.1°F28.9°C 77.6°F25.3°C 81% 2.7 mph SW4.3 kmh SW 7.0 mph11.3 kmh 29.90 in1012.5 mb 0.00 in0.0 mm 0.00 in0.0 mm 0.19 in4.8 mm
06:38 PM 84.0°F28.9°C 76.9°F24.9°C 79% 1.3 mph SW2.1 kmh SW 7.0 mph11.3 kmh 29.90 in1012.5 mb 0.00 in0.0 mm 0.00 in0.0 mm 0.19 in4.8 mm
06:42 PM 84.2°F29.0°C 77.1°F25.1°C 79% 1.6 mph SW2.6 kmh SW 7.0 mph11.3 kmh 29.91 in1012.9 mb 0.00 in0.0 mm 0.00 in0.0 mm 0.19 in4.8 mm
06:47 PM 84.1°F28.9°C 77.0°F25.0°C 79% 2.5 mph S4.0 kmh S 7.0 mph11.3 kmh 29.91 in1012.9 mb 0.00 in0.0 mm 0.00 in0.0 mm 0.19 in4.8 mm
06:52 PM 83.6°F28.7°C 76.8°F24.9°C 80% 2.8 mph SW4.5 kmh SW 7.0 mph11.3 kmh 29.91 in1012.9 mb 0.00 in0.0 mm 0.00 in0.0 mm 0.19 in4.8 mm
06:57 PM 83.3°F28.5°C 76.6°F24.8°C 80% 2.6 mph SW4.2 kmh SW 6.0 mph9.7 kmh 29.91 in1012.9 mb 0.00 in0.0 mm 0.00 in0.0 mm 0.19 in4.8 mm
07:02 PM 82.8°F28.2°C 76.5°F24.7°C 81% 2.0 mph SW3.2 kmh SW 6.0 mph9.7 kmh 29.91 in1012.9 mb 0.00 in0.0 mm 0.00 in0.0 mm 0.19 in4.8 mm
07:07 PM 82.4°F28.0°C 76.4°F24.7°C 82% 1.2 mph SW1.9 kmh SW 6.0 mph9.7 kmh 29.91 in1012.9 mb 0.00 in0.0 mm 0.00 in0.0 mm 0.19 in4.8 mm
07:12 PM 82.1°F27.8°C 76.5°F24.7°C 83% 2.5 mph SW4.0 kmh SW 5.0 mph8.0 kmh 29.91 in1012.9 mb 0.00 in0.0 mm 0.00 in0.0 mm 0.19 in4.8 mm
07:17 PM 81.7°F27.6°C 75.7°F24.3°C 82% 1.4 mph S2.3 kmh S 5.0 mph8.0 kmh 29.91 in1012.9 mb 0.00 in0.0 mm 0.00 in0.0 mm 0.19 in4.8 mm
07:22 PM 81.5°F27.5°C 75.6°F24.2°C 82% 1.6 mph SW2.6 kmh SW 6.0 mph9.7 kmh 29.91 in1012.9 mb 0.00 in0.0 mm 0.00 in0.0 mm 0.19 in4.8 mm
07:27 PM 81.2°F27.3°C 75.3°F24.1°C 82% 2.5 mph SSW4.0 kmh SSW 6.0 mph9.7 kmh 29.92 in1013.2 mb 0.00 in0.0 mm 0.00 in0.0 mm 0.19 in4.8 mm
07:32 PM 81.1°F27.3°C 75.5°F24.2°C 83% 1.5 mph SW2.4 kmh SW 6.0 mph9.7 kmh 29.92 in1013.2 mb 0.00 in0.0 mm 0.00 in0.0 mm 0.19 in4.8 mm
07:37 PM 80.8°F27.1°C 75.2°F24.0°C 83% 2.3 mph SW3.7 kmh SW 6.0 mph9.7 kmh 29.92 in1013.2 mb 0.00 in0.0 mm 0.00 in0.0 mm 0.19 in4.8 mm
07:42 PM 80.6°F27.0°C 75.4°F24.1°C 84% 1.0 mph SW1.6 kmh SW 5.0 mph8.0 kmh 29.93 in1013.5 mb 0.00 in0.0 mm 0.00 in0.0 mm 0.19 in4.8 mm
07:47 PM 80.4°F26.9°C 74.8°F23.8°C 83% 3.4 mph SW5.5 kmh SW 5.0 mph8.0 kmh 29.92 in1013.2 mb 0.00 in0.0 mm 0.00 in0.0 mm 0.19 in4.8 mm
07:52 PM 80.3°F26.8°C 74.7°F23.7°C 83% 2.0 mph WSW3.2 kmh WSW 5.0 mph8.0 kmh 29.92 in1013.2 mb 0.00 in0.0 mm 0.00 in0.0 mm 0.19 in4.8 mm
07:57 PM 80.2°F26.8°C 74.6°F23.7°C 83% 1.0 mph SW1.6 kmh SW 5.0 mph8.0 kmh 29.92 in1013.2 mb 0.00 in0.0 mm 0.00 in0.0 mm 0.19 in4.8 mm
08:02 PM 80.0°F26.7°C 74.4°F23.6°C 83% 1.0 mph WSW1.6 kmh WSW 5.0 mph8.0 kmh 29.92 in1013.2 mb 0.00 in0.0 mm 0.00 in0.0 mm 0.19 in4.8 mm
08:07 PM 79.9°F26.6°C 74.3°F23.5°C 83% 1.9 mph SW3.1 kmh SW 6.0 mph9.7 kmh 29.92 in1013.2 mb 0.00 in0.0 mm 0.00 in0.0 mm 0.19 in4.8 mm
08:12 PM 79.8°F26.6°C 74.2°F23.4°C 83% 2.1 mph SW3.4 kmh SW 6.0 mph9.7 kmh 29.92 in1013.2 mb 0.00 in0.0 mm 0.00 in0.0 mm 0.19 in4.8 mm
08:17 PM 79.8°F26.6°C 74.2°F23.4°C 83% 1.2 mph SSW1.9 kmh SSW 6.0 mph9.7 kmh 29.92 in1013.2 mb 0.00 in0.0 mm 0.00 in0.0 mm 0.19 in4.8 mm
08:22 PM 79.9°F26.6°C 74.3°F23.5°C 83% 1.0 mph SW1.6 kmh SW 5.0 mph8.0 kmh 29.93 in1013.5 mb 0.00 in0.0 mm 0.00 in0.0 mm 0.19 in4.8 mm
08:27 PM 79.9°F26.6°C 74.3°F23.5°C 83% 2.0 mph SW3.2 kmh SW 4.0 mph6.4 kmh 29.93 in1013.5 mb 0.00 in0.0 mm 0.00 in0.0 mm 0.19 in4.8 mm
08:32 PM 79.8°F26.6°C 74.2°F23.4°C 83% 1.8 mph SW2.9 kmh SW 4.0 mph6.4 kmh 29.93 in1013.5 mb 0.00 in0.0 mm 0.00 in0.0 mm 0.19 in4.8 mm
08:37 PM 79.7°F26.5°C 74.2°F23.4°C 83% 1.0 mph SW1.6 kmh SW 4.0 mph6.4 kmh 29.93 in1013.5 mb 0.00 in0.0 mm 0.00 in0.0 mm 0.19 in4.8 mm
08:42 PM 79.6°F26.4°C 74.4°F23.6°C 84% Calm Calm 4.0 mph6.4 kmh 29.93 in1013.5 mb 0.00 in0.0 mm 0.00 in0.0 mm 0.19 in4.8 mm
08:47 PM 79.4°F26.3°C 74.1°F23.4°C 84% 1.0 mph WSW1.6 kmh WSW 3.0 mph4.8 kmh 29.94 in1013.9 mb 0.00 in0.0 mm 0.00 in0.0 mm 0.19 in4.8 mm
08:52 PM 79.2°F26.2°C 74.0°F23.3°C 84% 1.0 mph W1.6 kmh W 2.0 mph3.2 kmh 29.94 in1013.9 mb 0.00 in0.0 mm 0.00 in0.0 mm 0.19 in4.8 mm
08:57 PM 79.1°F26.2°C 74.2°F23.4°C 85% 2.0 mph SW3.2 kmh SW 3.0 mph4.8 kmh 29.94 in1013.9 mb 0.00 in0.0 mm 0.00 in0.0 mm 0.19 in4.8 mm
09:02 PM 78.8°F26.0°C 74.3°F23.5°C 86% 1.5 mph SW2.4 kmh SW 4.0 mph6.4 kmh 29.94 in1013.9 mb 0.00 in0.0 mm 0.00 in0.0 mm 0.19 in4.8 mm
09:07 PM 78.6°F25.9°C 74.1°F23.4°C 86% 1.7 mph SW2.7 kmh SW 4.0 mph6.4 kmh 29.94 in1013.9 mb 0.00 in0.0 mm 0.00 in0.0 mm 0.19 in4.8 mm
09:12 PM 78.3°F25.7°C 74.1°F23.4°C 87% 2.3 mph SW3.7 kmh SW 4.0 mph6.4 kmh 29.95 in1014.2 mb 0.00 in0.0 mm 0.00 in0.0 mm 0.19 in4.8 mm
09:17 PM 78.1°F25.6°C 73.9°F23.3°C 87% 1.0 mph SW1.6 kmh SW 4.0 mph6.4 kmh 29.95 in1014.2 mb 0.00 in0.0 mm 0.00 in0.0 mm 0.19 in4.8 mm
09:22 PM 77.9°F25.5°C 74.1°F23.4°C 88% 1.0 mph SSE1.6 kmh SSE 4.0 mph6.4 kmh 29.95 in1014.2 mb 0.00 in0.0 mm 0.00 in0.0 mm 0.19 in4.8 mm
09:27 PM 77.7°F25.4°C 73.9°F23.3°C 88% 1.1 mph SW1.8 kmh SW 4.0 mph6.4 kmh 29.95 in1014.2 mb 0.00 in0.0 mm 0.00 in0.0 mm 0.19 in4.8 mm
09:32 PM 77.5°F25.3°C 74.0°F23.3°C 89% 1.7 mph SW2.7 kmh SW 3.0 mph4.8 kmh 29.95 in1014.2 mb 0.00 in0.0 mm 0.00 in0.0 mm 0.19 in4.8 mm
09:37 PM 77.2°F25.1°C 73.7°F23.2°C 89% 1.4 mph SW2.3 kmh SW 3.0 mph4.8 kmh 29.96 in1014.6 mb 0.00 in0.0 mm 0.00 in0.0 mm 0.19 in4.8 mm
09:42 PM 77.0°F25.0°C 73.5°F23.1°C 89% 2.0 mph SW3.2 kmh SW 5.0 mph8.0 kmh 29.96 in1014.6 mb 0.00 in0.0 mm 0.00 in0.0 mm 0.19 in4.8 mm
09:47 PM 76.9°F24.9°C 73.4°F23.0°C 89% 1.8 mph SW2.9 kmh SW 5.0 mph8.0 kmh 29.96 in1014.6 mb 0.00 in0.0 mm 0.00 in0.0 mm 0.19 in4.8 mm
09:52 PM 76.8°F24.9°C 73.6°F23.1°C 90% 1.2 mph S1.9 kmh S 5.0 mph8.0 kmh 29.97 in1014.9 mb 0.00 in0.0 mm 0.00 in0.0 mm 0.19 in4.8 mm
09:57 PM 76.7°F24.8°C 73.5°F23.1°C 90% 1.3 mph SW2.1 kmh SW 5.0 mph8.0 kmh 29.97 in1014.9 mb 0.00 in0.0 mm 0.00 in0.0 mm 0.19 in4.8 mm
10:02 PM 76.6°F24.8°C 73.4°F23.0°C 90% 2.0 mph SW3.2 kmh SW 5.0 mph8.0 kmh 29.97 in1014.9 mb 0.00 in0.0 mm 0.00 in0.0 mm 0.19 in4.8 mm
10:07 PM 76.4°F24.7°C 73.6°F23.1°C 91% 1.5 mph SSW2.4 kmh SSW 5.0 mph8.0 kmh 29.97 in1014.9 mb 0.00 in0.0 mm 0.00 in0.0 mm 0.19 in4.8 mm
10:12 PM 76.3°F24.6°C 73.5°F23.1°C 91% 1.3 mph SSW2.1 kmh SSW 5.0 mph8.0 kmh 29.97 in1014.9 mb 0.00 in0.0 mm 0.00 in0.0 mm 0.19 in4.8 mm
10:17 PM 76.1°F24.5°C 73.3°F22.9°C 91% 2.6 mph SW4.2 kmh SW 9.0 mph14.5 kmh 29.98 in1015.2 mb 0.00 in0.0 mm 0.00 in0.0 mm 0.19 in4.8 mm
10:22 PM 76.1°F24.5°C 73.3°F22.9°C 91% 1.8 mph SW2.9 kmh SW 9.0 mph14.5 kmh 29.98 in1015.2 mb 0.00 in0.0 mm 0.00 in0.0 mm 0.19 in4.8 mm
10:27 PM 76.0°F24.4°C 73.2°F22.9°C 91% 2.1 mph SW3.4 kmh SW 9.0 mph14.5 kmh 29.98 in1015.2 mb 0.00 in0.0 mm 0.00 in0.0 mm 0.19 in4.8 mm
10:32 PM 76.0°F24.4°C 73.2°F22.9°C 91% 2.2 mph SSW3.5 kmh SSW 9.0 mph14.5 kmh 29.98 in1015.2 mb 0.00 in0.0 mm 0.00 in0.0 mm 0.19 in4.8 mm
10:37 PM 75.9°F24.4°C 72.7°F22.6°C 90% 2.0 mph SSW3.2 kmh SSW 7.0 mph11.3 kmh 29.98 in1015.2 mb 0.00 in0.0 mm 0.00 in0.0 mm 0.19 in4.8 mm
10:42 PM 75.8°F24.3°C 72.7°F22.6°C 90% 2.0 mph SW3.2 kmh SW 7.0 mph11.3 kmh 29.98 in1015.2 mb 0.00 in0.0 mm 0.00 in0.0 mm 0.19 in4.8 mm
10:47 PM 75.8°F24.3°C 72.6°F22.6°C 90% 2.9 mph SSW4.7 kmh SSW 6.0 mph9.7 kmh 29.98 in1015.2 mb 0.00 in0.0 mm 0.00 in0.0 mm 0.19 in4.8 mm
10:52 PM 75.7°F24.3°C 72.5°F22.5°C 90% 2.1 mph WSW3.4 kmh WSW 6.0 mph9.7 kmh 29.98 in1015.2 mb 0.00 in0.0 mm 0.00 in0.0 mm 0.19 in4.8 mm
10:57 PM 75.6°F24.2°C 72.4°F22.4°C 90% 1.7 mph SW2.7 kmh SW 6.0 mph9.7 kmh 29.98 in1015.2 mb 0.00 in0.0 mm 0.00 in0.0 mm 0.19 in4.8 mm
11:02 PM 75.5°F24.2°C 72.4°F22.4°C 90% 2.5 mph SSW4.0 kmh SSW 7.0 mph11.3 kmh 29.98 in1015.2 mb 0.00 in0.0 mm 0.00 in0.0 mm 0.19 in4.8 mm
11:07 PM 75.4°F24.1°C 72.3°F22.4°C 90% 1.3 mph SW2.1 kmh SW 7.0 mph11.3 kmh 29.98 in1015.2 mb 0.00 in0.0 mm 0.00 in0.0 mm 0.19 in4.8 mm
11:12 PM 75.3°F24.1°C 72.5°F22.5°C 91% 2.0 mph SW3.2 kmh SW 7.0 mph11.3 kmh 29.98 in1015.2 mb 0.00 in0.0 mm 0.00 in0.0 mm 0.19 in4.8 mm
11:17 PM 75.2°F24.0°C 72.4°F22.4°C 91% 2.0 mph SW3.2 kmh SW 7.0 mph11.3 kmh 29.98 in1015.2 mb 0.00 in0.0 mm 0.00 in0.0 mm 0.19 in4.8 mm
11:22 PM 75.1°F23.9°C 72.3°F22.4°C 91% 1.8 mph SW2.9 kmh SW 9.0 mph14.5 kmh 29.98 in1015.2 mb 0.00 in0.0 mm 0.00 in0.0 mm 0.19 in4.8 mm
11:27 PM 75.0°F23.9°C 72.2°F22.3°C 91% 2.0 mph SW3.2 kmh SW 9.0 mph14.5 kmh 29.98 in1015.2 mb 0.00 in0.0 mm 0.00 in0.0 mm 0.19 in4.8 mm
11:32 PM 75.0°F23.9°C 72.2°F22.3°C 91% 2.3 mph SW3.7 kmh SW 9.0 mph14.5 kmh 29.98 in1015.2 mb 0.00 in0.0 mm 0.00 in0.0 mm 0.19 in4.8 mm
11:36 PM 74.8°F23.8°C 72.0°F22.2°C 91% 2.3 mph SW3.7 kmh SW 9.0 mph14.5 kmh 29.98 in1015.2 mb 0.00 in0.0 mm 0.00 in0.0 mm 0.19 in4.8 mm
11:41 PM 74.7°F23.7°C 71.9°F22.2°C 91% 2.1 mph SW3.4 kmh SW 6.0 mph9.7 kmh 29.98 in1015.2 mb 0.00 in0.0 mm 0.00 in0.0 mm 0.19 in4.8 mm
11:46 PM 74.6°F23.7°C 71.8°F22.1°C 91% 2.0 mph SW3.2 kmh SW 6.0 mph9.7 kmh 29.98 in1015.2 mb 0.00 in0.0 mm 0.00 in0.0 mm 0.19 in4.8 mm
11:51 PM 74.6°F23.7°C 72.1°F22.3°C 92% 1.8 mph SW2.9 kmh SW 6.0 mph9.7 kmh 29.99 in1015.6 mb 0.00 in0.0 mm 0.00 in0.0 mm 0.19 in4.8 mm
11:56 PM 74.5°F23.6°C 72.0°F22.2°C 92% 1.5 mph S2.4 kmh S 6.0 mph9.7 kmh 29.98 in1015.2 mb 0.00 in0.0 mm 0.00 in0.0 mm 0.19 in4.8 mm